PWSweather.com
Personal Weather Stations
Station Observations
KVACHEST22
Carter's Mill, Chesterfield, VA 23838

Carter's MillChesterfield, VA 23838

Lat: 37.342658, Lon: -77.646073

Elevation: 282

Station Type: Oregon Scientific WMR88A

http://www.sowersnet.com/weatherstation/

Latest ConditionsUpdated 10:00:00 AM EDT Thursday, Jul 30, 2015
Currently Today's Max Today's Min Today's Average
Temperature 80.2°F26.8°C 80.2°F26.8°C 73.6°F23.1°C 75.4°F24.1°C
Dew Point 72.0°F22.2°C 73.0°F22.8°C 69.1°F20.6°C 70.6°F21.4°C
Winds - N16091.8 kmh N Calm Calm - Calm Calm
Wind Gusts -- -- - -
Humidity 76% 88% 76% 85%
Pressure 29.68 in1005.1 mb 29.71 in1006.1 mb 29.68 in1005.1 mb -
Hour Temp Dew Point Humidity Winds Wind Gusts Pressure Precip Precip Rate Daily Precip Total
10:00 AM 80.2°F26.8°C 72.0°F22.2°C 76% - N16091.8 kmh N -- 29.68 in1005.1 mb 0.00 in0.0 mm 0.00 in0.0 mm 0.00 in0.0 mm
09:55 AM 80.2°F26.8°C 72.0°F22.2°C 76% - N16091.8 kmh N -- 29.68 in1005.1 mb 0.00 in0.0 mm 0.00 in0.0 mm 0.00 in0.0 mm
09:50 AM 80.2°F26.8°C 72.0°F22.2°C 76% - N16091.8 kmh N -- 29.68 in1005.1 mb 0.00 in0.0 mm 0.00 in0.0 mm 0.00 in0.0 mm
09:45 AM 80.1°F26.7°C 72.1°F22.3°C 77% - N16091.8 kmh N -- 29.68 in1005.1 mb 0.00 in0.0 mm 0.00 in0.0 mm 0.00 in0.0 mm
09:40 AM 79.6°F26.4°C 71.8°F22.1°C 77% - N16091.8 kmh N -- 29.68 in1005.1 mb 0.00 in0.0 mm 0.00 in0.0 mm 0.00 in0.0 mm
09:35 AM 79.0°F26.1°C 71.1°F21.7°C 77% - N16091.8 kmh N -- 29.68 in1005.1 mb 0.00 in0.0 mm 0.00 in0.0 mm 0.00 in0.0 mm
09:30 AM 79.0°F26.1°C 71.1°F21.7°C 77% - N16091.8 kmh N -- 29.68 in1005.1 mb 0.00 in0.0 mm 0.00 in0.0 mm 0.00 in0.0 mm
09:25 AM 79.2°F26.2°C 71.8°F22.1°C 78% - N16091.8 kmh N -- 29.68 in1005.1 mb 0.00 in0.0 mm 0.00 in0.0 mm 0.00 in0.0 mm
09:20 AM 79.3°F26.3°C 71.9°F22.2°C 78% - N16091.8 kmh N -- 29.68 in1005.1 mb 0.00 in0.0 mm 0.00 in0.0 mm 0.00 in0.0 mm
09:15 AM 78.9°F26.1°C 71.7°F22.1°C 79% - N16091.8 kmh N -- 29.68 in1005.1 mb 0.00 in0.0 mm 0.00 in0.0 mm 0.00 in0.0 mm
09:10 AM 78.5°F25.8°C 72.0°F22.2°C 81% - N16091.8 kmh N -- 29.68 in1005.1 mb 0.00 in0.0 mm 0.00 in0.0 mm 0.00 in0.0 mm
09:05 AM 78.1°F25.6°C 72.4°F22.4°C 83% - N16091.8 kmh N -- 29.68 in1005.1 mb 0.00 in0.0 mm 0.00 in0.0 mm 0.00 in0.0 mm
09:00 AM 78.0°F25.6°C 72.4°F22.4°C 83% - N16091.8 kmh N -- 29.68 in1005.1 mb 0.00 in0.0 mm 0.00 in0.0 mm 0.00 in0.0 mm
08:55 AM 77.5°F25.3°C 72.0°F22.2°C 83% - N16091.8 kmh N -- 29.68 in1005.1 mb 0.00 in0.0 mm 0.00 in0.0 mm 0.00 in0.0 mm
08:50 AM 77.4°F25.2°C 72.2°F22.3°C 84% - N16091.8 kmh N -- 29.68 in1005.1 mb 0.00 in0.0 mm 0.00 in0.0 mm 0.00 in0.0 mm
08:45 AM 77.3°F25.2°C 72.4°F22.4°C 85% - N16091.8 kmh N -- 29.68 in1005.1 mb 0.00 in0.0 mm 0.00 in0.0 mm 0.00 in0.0 mm
08:40 AM 77.2°F25.1°C 72.3°F22.4°C 85% - N16091.8 kmh N -- 29.68 in1005.1 mb 0.00 in0.0 mm 0.00 in0.0 mm 0.00 in0.0 mm
08:35 AM 76.9°F24.9°C 72.4°F22.4°C 86% - N16091.8 kmh N -- 29.68 in1005.1 mb 0.00 in0.0 mm 0.00 in0.0 mm 0.00 in0.0 mm
08:30 AM 76.3°F24.6°C 71.8°F22.1°C 86% - N16091.8 kmh N -- 29.68 in1005.1 mb 0.00 in0.0 mm 0.00 in0.0 mm 0.00 in0.0 mm
08:25 AM 76.1°F24.5°C 71.6°F22.0°C 86% - N16091.8 kmh N -- 29.68 in1005.1 mb 0.00 in0.0 mm 0.00 in0.0 mm 0.00 in0.0 mm
08:20 AM 75.9°F24.4°C 71.6°F22.0°C 86% - N16091.8 kmh N -- 29.68 in1005.1 mb 0.00 in0.0 mm 0.00 in0.0 mm 0.00 in0.0 mm
08:15 AM 75.9°F24.4°C 71.8°F22.1°C 87% - N16091.8 kmh N -- 29.68 in1005.1 mb 0.00 in0.0 mm 0.00 in0.0 mm 0.00 in0.0 mm
08:10 AM 75.7°F24.3°C 71.5°F21.9°C 87% - N16091.8 kmh N -- 29.68 in1005.1 mb 0.00 in0.0 mm 0.00 in0.0 mm 0.00 in0.0 mm
08:05 AM 75.4°F24.1°C 71.2°F21.8°C 87% - N16091.8 kmh N -- 29.68 in1005.1 mb 0.00 in0.0 mm 0.00 in0.0 mm 0.00 in0.0 mm
08:00 AM 75.0°F23.9°C 70.9°F21.6°C 87% - N16091.8 kmh N -- 29.68 in1005.1 mb 0.00 in0.0 mm 0.00 in0.0 mm 0.00 in0.0 mm
07:55 AM 74.9°F23.8°C 71.0°F21.7°C 88% - N16091.8 kmh N -- 29.68 in1005.1 mb 0.00 in0.0 mm 0.00 in0.0 mm 0.00 in0.0 mm
07:50 AM 74.8°F23.8°C 71.0°F21.7°C 88% - N16091.8 kmh N -- 29.68 in1005.1 mb 0.00 in0.0 mm 0.00 in0.0 mm 0.00 in0.0 mm
07:45 AM 74.8°F23.8°C 70.9°F21.6°C 88% - N16091.8 kmh N -- 29.68 in1005.1 mb 0.00 in0.0 mm 0.00 in0.0 mm 0.00 in0.0 mm
07:40 AM 74.7°F23.7°C 70.9°F21.6°C 88% - N16091.8 kmh N -- 29.68 in1005.1 mb 0.00 in0.0 mm 0.00 in0.0 mm 0.00 in0.0 mm
07:35 AM 74.5°F23.6°C 70.7°F21.5°C 88% - N16091.8 kmh N -- 29.68 in1005.1 mb 0.00 in0.0 mm 0.00 in0.0 mm 0.00 in0.0 mm
07:30 AM 74.1°F23.4°C 70.3°F21.3°C 88% - N16091.8 kmh N -- 29.68 in1005.1 mb 0.00 in0.0 mm 0.00 in0.0 mm 0.00 in0.0 mm
07:25 AM 74.0°F23.3°C 70.2°F21.2°C 88% - N16091.8 kmh N -- 29.68 in1005.1 mb 0.00 in0.0 mm 0.00 in0.0 mm 0.00 in0.0 mm
07:20 AM 73.9°F23.3°C 70.2°F21.2°C 88% - N16091.8 kmh N -- 29.68 in1005.1 mb 0.00 in0.0 mm 0.00 in0.0 mm 0.00 in0.0 mm
07:15 AM 73.9°F23.3°C 70.2°F21.2°C 88% - N16091.8 kmh N -- 29.68 in1005.1 mb 0.00 in0.0 mm 0.00 in0.0 mm 0.00 in0.0 mm
07:10 AM 73.9°F23.3°C 70.2°F21.2°C 88% - N16091.8 kmh N -- 29.68 in1005.1 mb 0.00 in0.0 mm 0.00 in0.0 mm 0.00 in0.0 mm
07:05 AM 73.9°F23.3°C 70.2°F21.2°C 88% - N16091.8 kmh N -- 29.68 in1005.1 mb 0.00 in0.0 mm 0.00 in0.0 mm 0.00 in0.0 mm
07:00 AM 73.9°F23.3°C 70.2°F21.2°C 88% - N16091.8 kmh N -- 29.68 in1005.1 mb 0.00 in0.0 mm 0.00 in0.0 mm 0.00 in0.0 mm
06:55 AM 73.7°F23.2°C 69.6°F20.9°C 87% - N16091.8 kmh N -- 29.68 in1005.1 mb 0.00 in0.0 mm 0.00 in0.0 mm 0.00 in0.0 mm
06:50 AM 73.6°F23.1°C 69.5°F20.8°C 87% - N16091.8 kmh N -- 29.68 in1005.1 mb 0.00 in0.0 mm 0.00 in0.0 mm 0.00 in0.0 mm
06:45 AM 73.6°F23.1°C 69.5°F20.8°C 87% - N16091.8 kmh N -- 29.68 in1005.1 mb 0.00 in0.0 mm 0.00 in0.0 mm 0.00 in0.0 mm
06:40 AM 73.6°F23.1°C 69.5°F20.8°C 87% - N16091.8 kmh N -- 29.68 in1005.1 mb 0.00 in0.0 mm 0.00 in0.0 mm 0.00 in0.0 mm
06:35 AM 73.6°F23.1°C 69.5°F20.8°C 87% - N16091.8 kmh N -- 29.68 in1005.1 mb 0.00 in0.0 mm 0.00 in0.0 mm 0.00 in0.0 mm
06:30 AM 73.8°F23.2°C 69.6°F20.9°C 87% - N16091.8 kmh N -- 29.68 in1005.1 mb 0.00 in0.0 mm 0.00 in0.0 mm 0.00 in0.0 mm
06:25 AM 73.6°F23.1°C 69.5°F20.8°C 87% - N16091.8 kmh N -- 29.68 in1005.1 mb 0.00 in0.0 mm 0.00 in0.0 mm 0.00 in0.0 mm
06:20 AM 73.6°F23.1°C 69.5°F20.8°C 87% - N16091.8 kmh N -- 29.68 in1005.1 mb 0.00 in0.0 mm 0.00 in0.0 mm 0.00 in0.0 mm
06:15 AM 73.6°F23.1°C 69.5°F20.8°C 87% - N16091.8 kmh N -- 29.68 in1005.1 mb 0.00 in0.0 mm 0.00 in0.0 mm 0.00 in0.0 mm
06:10 AM 73.6°F23.1°C 69.5°F20.8°C 87% - N16091.8 kmh N -- 29.68 in1005.1 mb 0.00 in0.0 mm 0.00 in0.0 mm 0.00 in0.0 mm
06:05 AM 73.6°F23.1°C 69.5°F20.8°C 87% - N16091.8 kmh N -- 29.68 in1005.1 mb 0.00 in0.0 mm 0.00 in0.0 mm 0.00 in0.0 mm
06:00 AM 73.6°F23.1°C 69.5°F20.8°C 87% - N16091.8 kmh N -- 29.68 in1005.1 mb 0.00 in0.0 mm 0.00 in0.0 mm 0.00 in0.0 mm
05:55 AM 73.8°F23.2°C 69.6°F20.9°C 87% - N16091.8 kmh N -- 29.68 in1005.1 mb 0.00 in0.0 mm 0.00 in0.0 mm 0.00 in0.0 mm
05:50 AM 73.7°F23.2°C 69.4°F20.8°C 86% - N16091.8 kmh N -- 29.68 in1005.1 mb 0.00 in0.0 mm 0.00 in0.0 mm 0.00 in0.0 mm
05:45 AM 73.6°F23.1°C 69.1°F20.6°C 86% - N16091.8 kmh N -- 29.68 in1005.1 mb 0.00 in0.0 mm 0.00 in0.0 mm 0.00 in0.0 mm
05:40 AM 73.7°F23.2°C 69.2°F20.7°C 86% - N16091.8 kmh N -- 29.68 in1005.1 mb 0.00 in0.0 mm 0.00 in0.0 mm 0.00 in0.0 mm
05:35 AM 73.8°F23.2°C 69.3°F20.7°C 86% - N16091.8 kmh N -- 29.68 in1005.1 mb 0.00 in0.0 mm 0.00 in0.0 mm 0.00 in0.0 mm
05:30 AM 73.8°F23.2°C 69.3°F20.7°C 86% - N16091.8 kmh N -- 29.68 in1005.1 mb 0.00 in0.0 mm 0.00 in0.0 mm 0.00 in0.0 mm
05:25 AM 73.8°F23.2°C 69.3°F20.7°C 86% - N16091.8 kmh N -- 29.68 in1005.1 mb 0.00 in0.0 mm 0.00 in0.0 mm 0.00 in0.0 mm
05:20 AM 73.8°F23.2°C 69.4°F20.8°C 86% - N16091.8 kmh N -- 29.68 in1005.1 mb 0.00 in0.0 mm 0.00 in0.0 mm 0.00 in0.0 mm
05:15 AM 73.8°F23.2°C 69.3°F20.7°C 86% - N16091.8 kmh N -- 29.68 in1005.1 mb 0.00 in0.0 mm 0.00 in0.0 mm 0.00 in0.0 mm
05:10 AM 73.8°F23.2°C 69.3°F20.7°C 86% - N16091.8 kmh N -- 29.68 in1005.1 mb 0.00 in0.0 mm 0.00 in0.0 mm 0.00 in0.0 mm
05:05 AM 73.8°F23.2°C 69.3°F20.7°C 86% - N16091.8 kmh N -- 29.68 in1005.1 mb 0.00 in0.0 mm 0.00 in0.0 mm 0.00 in0.0 mm
05:00 AM 73.8°F23.2°C 69.3°F20.7°C 86% - N16091.8 kmh N -- 29.68 in1005.1 mb 0.00 in0.0 mm 0.00 in0.0 mm 0.00 in0.0 mm
04:55 AM 73.8°F23.2°C 69.4°F20.8°C 86% - N16091.8 kmh N -- 29.68 in1005.1 mb 0.00 in0.0 mm 0.00 in0.0 mm 0.00 in0.0 mm
04:50 AM 73.9°F23.3°C 69.5°F20.8°C 86% - N16091.8 kmh N -- 29.68 in1005.1 mb 0.00 in0.0 mm 0.00 in0.0 mm 0.00 in0.0 mm
04:45 AM 73.9°F23.3°C 69.3°F20.7°C 86% - N16091.8 kmh N -- 29.68 in1005.1 mb 0.00 in0.0 mm 0.00 in0.0 mm 0.00 in0.0 mm
04:40 AM 73.9°F23.3°C 69.1°F20.6°C 85% - N16091.8 kmh N -- 29.68 in1005.1 mb 0.00 in0.0 mm 0.00 in0.0 mm 0.00 in0.0 mm
04:35 AM 73.9°F23.3°C 69.1°F20.6°C 85% - N16091.8 kmh N -- 29.68 in1005.1 mb 0.00 in0.0 mm 0.00 in0.0 mm 0.00 in0.0 mm
04:30 AM 73.9°F23.3°C 69.1°F20.6°C 85% - N16091.8 kmh N -- 29.68 in1005.1 mb 0.00 in0.0 mm 0.00 in0.0 mm 0.00 in0.0 mm
04:25 AM 74.1°F23.4°C 69.3°F20.7°C 85% - N16091.8 kmh N -- 29.68 in1005.1 mb 0.00 in0.0 mm 0.00 in0.0 mm 0.00 in0.0 mm
04:20 AM 74.1°F23.4°C 69.3°F20.7°C 85% - N16091.8 kmh N -- 29.68 in1005.1 mb 0.00 in0.0 mm 0.00 in0.0 mm 0.00 in0.0 mm
04:15 AM 74.2°F23.4°C 69.4°F20.8°C 85% - N16091.8 kmh N -- 29.68 in1005.1 mb 0.00 in0.0 mm 0.00 in0.0 mm 0.00 in0.0 mm
04:10 AM 74.1°F23.4°C 69.3°F20.7°C 85% - N16091.8 kmh N -- 29.68 in1005.1 mb 0.00 in0.0 mm 0.00 in0.0 mm 0.00 in0.0 mm
04:05 AM 74.1°F23.4°C 69.3°F20.7°C 85% - N16091.8 kmh N -- 29.68 in1005.1 mb 0.00 in0.0 mm 0.00 in0.0 mm 0.00 in0.0 mm
04:00 AM 74.3°F23.5°C 69.5°F20.8°C 85% - N16091.8 kmh N -- 29.68 in1005.1 mb 0.00 in0.0 mm 0.00 in0.0 mm 0.00 in0.0 mm
03:55 AM 74.4°F23.6°C 69.5°F20.8°C 85% - N16091.8 kmh N -- 29.68 in1005.1 mb 0.00 in0.0 mm 0.00 in0.0 mm 0.00 in0.0 mm
03:50 AM 74.5°F23.6°C 69.7°F20.9°C 85% - N16091.8 kmh N -- 29.68 in1005.1 mb 0.00 in0.0 mm 0.00 in0.0 mm 0.00 in0.0 mm
03:45 AM 74.8°F23.8°C 69.9°F21.1°C 85% - N16091.8 kmh N -- 29.68 in1005.1 mb 0.00 in0.0 mm 0.00 in0.0 mm 0.00 in0.0 mm
03:40 AM 74.7°F23.7°C 69.8°F21.0°C 85% - N16091.8 kmh N -- 29.68 in1005.1 mb 0.00 in0.0 mm 0.00 in0.0 mm 0.00 in0.0 mm
03:35 AM 74.5°F23.6°C 69.7°F20.9°C 85% - N16091.8 kmh N -- 29.68 in1005.1 mb 0.00 in0.0 mm 0.00 in0.0 mm 0.00 in0.0 mm
03:30 AM 74.6°F23.7°C 69.8°F21.0°C 85% - N16091.8 kmh N -- 29.68 in1005.1 mb 0.00 in0.0 mm 0.00 in0.0 mm 0.00 in0.0 mm
03:25 AM 74.7°F23.7°C 69.8°F21.0°C 85% - N16091.8 kmh N -- 29.68 in1005.1 mb 0.00 in0.0 mm 0.00 in0.0 mm 0.00 in0.0 mm
03:20 AM 74.8°F23.8°C 70.0°F21.1°C 85% - N16091.8 kmh N -- 29.68 in1005.1 mb 0.00 in0.0 mm 0.00 in0.0 mm 0.00 in0.0 mm
03:15 AM 74.9°F23.8°C 70.1°F21.2°C 85% - N16091.8 kmh N -- 29.68 in1005.1 mb 0.00 in0.0 mm 0.00 in0.0 mm 0.00 in0.0 mm
03:10 AM 74.8°F23.8°C 70.0°F21.1°C 85% - N16091.8 kmh N -- 29.68 in1005.1 mb 0.00 in0.0 mm 0.00 in0.0 mm 0.00 in0.0 mm
03:05 AM 74.9°F23.8°C 70.1°F21.2°C 85% - N16091.8 kmh N -- 29.68 in1005.1 mb 0.00 in0.0 mm 0.00 in0.0 mm 0.00 in0.0 mm
03:00 AM 75.0°F23.9°C 70.2°F21.2°C 85% - N16091.8 kmh N -- 29.68 in1005.1 mb 0.00 in0.0 mm 0.00 in0.0 mm 0.00 in0.0 mm
02:55 AM 75.1°F23.9°C 70.1°F21.2°C 84% - N16091.8 kmh N -- 29.68 in1005.1 mb 0.00 in0.0 mm 0.00 in0.0 mm 0.00 in0.0 mm
02:50 AM 75.2°F24.0°C 70.3°F21.3°C 85% - N16091.8 kmh N -- 29.68 in1005.1 mb 0.00 in0.0 mm 0.00 in0.0 mm 0.00 in0.0 mm
02:45 AM 75.2°F24.0°C 70.4°F21.3°C 85% - N16091.8 kmh N -- 29.68 in1005.1 mb 0.00 in0.0 mm 0.00 in0.0 mm 0.00 in0.0 mm
02:40 AM 75.2°F24.0°C 70.0°F21.1°C 84% - N16091.8 kmh N -- 29.68 in1005.1 mb 0.00 in0.0 mm 0.00 in0.0 mm 0.00 in0.0 mm
02:35 AM 75.2°F24.0°C 70.0°F21.1°C 84% - N16091.8 kmh N -- 29.68 in1005.1 mb 0.00 in0.0 mm 0.00 in0.0 mm 0.00 in0.0 mm
02:30 AM 75.4°F24.1°C 70.2°F21.2°C 84% - N16091.8 kmh N -- 29.68 in1005.1 mb 0.00 in0.0 mm 0.00 in0.0 mm 0.00 in0.0 mm
02:25 AM 75.4°F24.1°C 70.4°F21.3°C 85% - N16091.8 kmh N -- 29.68 in1005.1 mb 0.00 in0.0 mm 0.00 in0.0 mm 0.00 in0.0 mm
02:20 AM 75.3°F24.1°C 70.3°F21.3°C 84% - N16091.8 kmh N -- 29.68 in1005.1 mb 0.00 in0.0 mm 0.00 in0.0 mm 0.00 in0.0 mm
02:15 AM 75.3°F24.1°C 70.1°F21.2°C 84% - N16091.8 kmh N -- 29.68 in1005.1 mb 0.00 in0.0 mm 0.00 in0.0 mm 0.00 in0.0 mm
02:10 AM 75.4°F24.1°C 70.2°F21.2°C 84% - N16091.8 kmh N -- 29.68 in1005.1 mb 0.00 in0.0 mm 0.00 in0.0 mm 0.00 in0.0 mm
02:05 AM 75.6°F24.2°C 70.6°F21.4°C 85% - N16091.8 kmh N -- 29.68 in1005.1 mb 0.00 in0.0 mm 0.00 in0.0 mm 0.00 in0.0 mm
02:00 AM 75.7°F24.3°C 70.8°F21.6°C 85% - N16091.8 kmh N -- 29.68 in1005.1 mb 0.00 in0.0 mm 0.00 in0.0 mm 0.00 in0.0 mm
01:55 AM 75.6°F24.2°C 70.5°F21.4°C 84% - N16091.8 kmh N -- 29.68 in1005.1 mb 0.00 in0.0 mm 0.00 in0.0 mm 0.00 in0.0 mm
01:50 AM 75.6°F24.2°C 70.7°F21.5°C 85% - N16091.8 kmh N -- 29.68 in1005.1 mb 0.00 in0.0 mm 0.00 in0.0 mm 0.00 in0.0 mm
01:45 AM 75.9°F24.4°C 71.0°F21.7°C 85% - N16091.8 kmh N -- 29.68 in1005.1 mb 0.00 in0.0 mm 0.00 in0.0 mm 0.00 in0.0 mm
01:40 AM 76.0°F24.4°C 71.1°F21.7°C 85% - N16091.8 kmh N -- 29.70 in1005.8 mb 0.00 in0.0 mm 0.00 in0.0 mm 0.00 in0.0 mm
01:35 AM 75.9°F24.4°C 71.1°F21.7°C 85% - N16091.8 kmh N -- 29.71 in1006.1 mb 0.00 in0.0 mm 0.00 in0.0 mm 0.00 in0.0 mm
01:30 AM 75.9°F24.4°C 71.1°F21.7°C 85% - N16091.8 kmh N -- 29.71 in1006.1 mb 0.00 in0.0 mm 0.00 in0.0 mm 0.00 in0.0 mm
01:25 AM 76.1°F24.5°C 71.3°F21.8°C 85% - N16091.8 kmh N -- 29.71 in1006.1 mb 0.00 in0.0 mm 0.00 in0.0 mm 0.00 in0.0 mm
01:20 AM 76.1°F24.5°C 71.3°F21.8°C 85% - N16091.8 kmh N -- 29.71 in1006.1 mb 0.00 in0.0 mm 0.00 in0.0 mm 0.00 in0.0 mm
01:15 AM 76.1°F24.5°C 71.3°F21.8°C 85% - N16091.8 kmh N -- 29.71 in1006.1 mb 0.00 in0.0 mm 0.00 in0.0 mm 0.00 in0.0 mm
01:10 AM 76.3°F24.6°C 71.8°F22.1°C 86% - N16091.8 kmh N -- 29.71 in1006.1 mb 0.00 in0.0 mm 0.00 in0.0 mm 0.00 in0.0 mm
01:05 AM 76.5°F24.7°C 71.9°F22.2°C 86% - N16091.8 kmh N -- 29.71 in1006.1 mb 0.00 in0.0 mm 0.00 in0.0 mm 0.00 in0.0 mm
01:00 AM 76.6°F24.8°C 72.5°F22.5°C 87% - N16091.8 kmh N -- 29.71 in1006.1 mb 0.00 in0.0 mm 0.00 in0.0 mm 0.00 in0.0 mm
12:55 AM 76.5°F24.7°C 72.4°F22.4°C 87% - N16091.8 kmh N -- 29.71 in1006.1 mb 0.00 in0.0 mm 0.00 in0.0 mm 0.00 in0.0 mm
12:50 AM 76.5°F24.7°C 72.3°F22.4°C 87% - N16091.8 kmh N -- 29.71 in1006.1 mb 0.00 in0.0 mm 0.00 in0.0 mm 0.00 in0.0 mm
12:45 AM 76.6°F24.8°C 72.4°F22.4°C 87% - N16091.8 kmh N -- 29.71 in1006.1 mb 0.00 in0.0 mm 0.00 in0.0 mm 0.00 in0.0 mm
12:40 AM 76.8°F24.9°C 72.6°F22.6°C 87% - N16091.8 kmh N -- 29.71 in1006.1 mb 0.00 in0.0 mm 0.00 in0.0 mm 0.00 in0.0 mm
12:35 AM 76.8°F24.9°C 73.0°F22.8°C 88% - N16091.8 kmh N -- 29.71 in1006.1 mb 0.00 in0.0 mm 0.00 in0.0 mm 0.00 in0.0 mm
12:30 AM 76.8°F24.9°C 72.9°F22.7°C 88% - N16091.8 kmh N -- 29.71 in1006.1 mb 0.00 in0.0 mm 0.00 in0.0 mm 0.00 in0.0 mm
12:25 AM 76.7°F24.8°C 72.9°F22.7°C 88% - N16091.8 kmh N -- 29.71 in1006.1 mb 0.00 in0.0 mm 0.00 in0.0 mm 0.00 in0.0 mm
12:20 AM 76.8°F24.9°C 73.0°F22.8°C 88% - N16091.8 kmh N -- 29.71 in1006.1 mb 0.00 in0.0 mm 0.00 in0.0 mm 0.00 in0.0 mm
12:15 AM 76.8°F24.9°C 73.0°F22.8°C 88% - N16091.8 kmh N -- 29.71 in1006.1 mb 0.00 in0.0 mm 0.00 in0.0 mm 0.00 in0.0 mm
12:10 AM 76.5°F24.7°C 72.6°F22.6°C 88% - N16091.8 kmh N -- 29.71 in1006.1 mb 0.00 in0.0 mm 0.00 in0.0 mm 0.00 in0.0 mm
12:05 AM 76.1°F24.5°C 71.9°F22.2°C 87% - N16091.8 kmh N -- 29.71 in1006.1 mb 0.00 in0.0 mm 0.00 in0.0 mm 0.00 in0.0 mm
12:00 AM 76.2°F24.6°C 72.0°F22.2°C 87% - N16091.8 kmh N -- 29.71 in1006.1 mb 0.00 in0.0 mm 0.00 in0.0 mm 0.00 in0.0 mm